createdAt,value
2023-04-05T00:01:50.269Z,4.95
2023-04-05T00:04:21.027Z,4.90
2023-04-05T00:06:55.254Z,4.70
2023-04-05T00:09:26.353Z,5.03
2023-04-05T00:11:57.911Z,5.38
2023-04-05T00:14:26.756Z,5.18
2023-04-05T00:16:58.001Z,5.90
2023-04-05T00:19:26.307Z,5.70
2023-04-05T00:21:55.599Z,5.05
2023-04-05T00:24:25.423Z,4.53
2023-04-05T00:26:54.600Z,4.63
2023-04-05T00:29:23.194Z,4.93
2023-04-05T00:31:51.909Z,5.43
2023-04-05T00:34:20.888Z,5.75
2023-04-05T00:36:49.732Z,5.43
2023-04-05T00:39:18.703Z,5.22
2023-04-05T00:41:48.712Z,4.80
2023-04-05T00:44:19.734Z,5.15
2023-04-05T00:46:51.581Z,5.00
2023-04-05T00:49:20.091Z,4.25
2023-04-05T00:51:49.334Z,4.90
2023-04-05T00:54:22.162Z,5.55
2023-04-05T00:56:52.957Z,5.00
2023-04-05T00:59:24.573Z,5.88
2023-04-05T01:01:57.573Z,5.05
2023-04-05T01:04:27.692Z,4.68
2023-04-05T01:07:01.387Z,4.97
2023-04-05T01:09:34.677Z,5.47
2023-04-05T01:12:06.142Z,5.55
2023-04-05T01:14:52.103Z,4.75
2023-04-05T01:17:24.864Z,6.03
2023-04-05T01:20:01.557Z,4.68
2023-04-05T01:22:44.957Z,5.20
2023-04-05T01:25:23.231Z,5.53
2023-04-05T01:27:58.971Z,5.15
2023-04-05T01:30:41.027Z,6.10
2023-04-05T01:33:24.413Z,5.03
2023-04-05T01:35:59.653Z,4.93
2023-04-05T01:38:33.020Z,5.18
2023-04-05T01:41:03.589Z,4.78
2023-04-05T01:43:32.167Z,4.93
2023-04-05T01:46:01.326Z,5.68
2023-04-05T01:48:36.055Z,5.35
2023-04-05T01:51:05.325Z,5.32
2023-04-05T01:53:37.976Z,5.70
2023-04-05T01:56:06.398Z,5.13
2023-04-05T01:58:42.124Z,4.88
2023-04-05T02:01:11.279Z,4.82
2023-04-05T02:03:45.535Z,5.35
2023-04-05T02:06:16.351Z,5.35
2023-04-05T02:08:48.368Z,5.45
2023-04-05T02:11:22.108Z,5.63
2023-04-05T02:13:54.386Z,5.03
2023-04-05T02:16:27.272Z,5.10
2023-04-05T02:18:57.970Z,4.82
2023-04-05T02:21:31.924Z,4.88
2023-04-05T02:24:00.576Z,5.78
2023-04-05T02:26:33.016Z,5.63
2023-04-05T02:29:02.106Z,5.03
2023-04-05T02:31:33.818Z,6.57
2023-04-05T02:34:03.151Z,5.20
2023-04-05T02:36:41.939Z,5.40
2023-04-05T02:39:10.294Z,5.55
2023-04-05T02:41:41.558Z,5.63
2023-04-05T02:44:11.866Z,4.80
2023-04-05T02:46:49.061Z,5.45
2023-04-05T02:49:20.271Z,5.10
2023-04-05T02:51:48.908Z,5.20
2023-04-05T02:54:17.864Z,5.32
2023-04-05T02:56:47.726Z,5.35
2023-04-05T02:59:20.660Z,4.47
2023-04-05T03:01:49.900Z,5.28
2023-04-05T03:04:27.916Z,5.43
2023-04-05T03:07:03.546Z,5.35
2023-04-05T03:09:38.640Z,5.30
2023-04-05T03:12:10.237Z,5.53
2023-04-05T03:14:46.062Z,5.30
2023-04-05T03:17:19.671Z,5.13
2023-04-05T03:20:02.704Z,5.30
2023-04-05T03:22:47.023Z,5.05
2023-04-05T03:25:17.500Z,5.30
2023-04-05T03:27:49.195Z,4.97
2023-04-05T03:30:22.028Z,5.40
2023-04-05T03:33:18.723Z,5.70
2023-04-05T03:35:50.981Z,5.03
2023-04-05T03:38:20.585Z,4.68
2023-04-05T03:41:09.572Z,5.47
2023-04-05T03:43:39.398Z,5.38
2023-04-05T03:46:07.836Z,5.47
2023-04-05T03:48:37.170Z,5.15
2023-04-05T03:51:08.086Z,5.47
2023-04-05T03:53:36.765Z,5.20
2023-04-05T03:56:07.095Z,5.47
2023-04-05T03:58:51.044Z,5.20
2023-04-05T04:01:26.170Z,4.68
2023-04-05T04:03:55.793Z,5.30
2023-04-05T04:06:27.226Z,5.85
2023-04-05T04:08:57.065Z,4.78
2023-04-05T04:11:25.877Z,5.28
2023-04-05T04:13:54.497Z,6.00
2023-04-05T04:16:43.453Z,4.80
2023-04-05T04:19:24.005Z,6.00
2023-04-05T04:22:20.894Z,5.80
2023-04-05T04:25:12.796Z,5.63
2023-04-05T04:28:06.737Z,5.63
2023-04-05T04:30:53.679Z,5.63
2023-04-05T04:33:55.409Z,5.95
2023-04-05T04:36:46.561Z,5.85
2023-04-05T04:39:39.750Z,6.20
2023-04-05T04:42:33.744Z,5.95
2023-04-05T04:45:17.257Z,6.10
2023-04-05T04:47:53.918Z,5.80
2023-04-05T04:50:43.407Z,6.13
2023-04-05T04:53:13.583Z,5.43
2023-04-05T04:55:42.626Z,6.10
2023-04-05T04:58:12.920Z,6.93
2023-04-05T05:00:48.177Z,6.03
2023-04-05T05:03:25.341Z,6.25
2023-04-05T05:05:57.208Z,5.28
2023-04-05T05:08:32.064Z,5.60
2023-04-05T05:11:01.846Z,5.57
2023-04-05T05:13:32.699Z,5.68
2023-04-05T05:16:02.196Z,7.30
2023-04-05T05:18:33.259Z,5.82
2023-04-05T05:21:02.846Z,5.57
2023-04-05T05:23:31.923Z,6.45
2023-04-05T05:26:03.680Z,5.97
2023-04-05T05:28:38.765Z,5.82
2023-04-05T05:31:07.337Z,6.57
2023-04-05T05:36:09.364Z,6.18
2023-04-05T05:38:40.254Z,6.85
2023-04-05T05:41:08.730Z,6.15
2023-04-05T05:43:38.652Z,8.00
2023-04-05T05:46:07.360Z,6.28
2023-04-05T05:48:38.042Z,6.45
2023-04-05T05:51:09.885Z,6.60
2023-04-05T05:53:39.747Z,6.57
2023-04-05T05:56:08.876Z,6.65
2023-04-05T05:58:40.559Z,6.85
2023-04-05T06:01:12.154Z,6.30
2023-04-05T06:03:45.955Z,6.80
2023-04-05T06:06:17.281Z,5.85
2023-04-05T06:08:47.406Z,6.07
2023-04-05T06:11:19.562Z,6.07
2023-04-05T06:13:51.842Z,6.00
2023-04-05T06:16:20.616Z,6.13
2023-04-05T06:18:51.417Z,5.55
2023-04-05T06:21:22.011Z,6.28
2023-04-05T06:23:52.957Z,6.22
2023-04-05T06:26:28.561Z,5.63
2023-04-05T06:28:57.756Z,5.60
2023-04-05T06:31:33.027Z,4.90
2023-04-05T06:34:01.846Z,5.22
2023-04-05T06:36:33.960Z,4.90
2023-04-05T06:39:08.273Z,5.18
2023-04-05T06:41:38.088Z,4.65
2023-04-05T06:44:07.192Z,5.38
2023-04-05T06:46:36.709Z,4.75
2023-04-05T06:49:06.843Z,5.45
2023-04-05T06:51:35.319Z,4.35
2023-04-05T06:54:03.734Z,5.20
2023-04-05T06:56:33.586Z,6.40
2023-04-05T06:59:02.969Z,5.20
2023-04-05T07:01:32.845Z,4.97
2023-04-05T07:04:02.155Z,4.60
2023-04-05T07:06:35.273Z,4.80
2023-04-05T07:09:05.308Z,5.05
2023-04-05T07:11:34.404Z,4.78
2023-04-05T07:14:03.156Z,4.63
2023-04-05T07:16:37.222Z,5.10
2023-04-05T07:19:07.306Z,5.07
2023-04-05T07:21:37.888Z,4.15
2023-04-05T07:24:11.777Z,4.85
2023-04-05T07:26:42.529Z,4.43
2023-04-05T07:29:13.038Z,4.65
2023-04-05T07:31:43.362Z,8.73
2023-04-05T07:34:12.503Z,5.03
2023-04-05T07:36:41.920Z,4.43
2023-04-05T07:39:11.337Z,4.32
2023-04-05T07:41:43.031Z,4.07
2023-04-05T07:44:11.925Z,3.97
2023-04-05T07:46:46.819Z,4.35
2023-04-05T07:49:17.917Z,4.22
2023-04-05T07:51:51.775Z,4.50
2023-04-05T07:54:20.541Z,3.95
2023-04-05T07:56:50.273Z,3.78
2023-04-05T07:59:22.021Z,4.28
2023-04-05T08:01:50.438Z,3.75
2023-04-05T08:04:19.976Z,4.13
2023-04-05T08:06:51.041Z,4.05
2023-04-05T08:09:20.187Z,4.13
2023-04-05T08:11:48.722Z,3.85
2023-04-05T08:14:18.373Z,4.22
2023-04-05T08:16:46.928Z,4.03
2023-04-05T08:21:49.313Z,3.72
2023-04-05T08:24:18.889Z,3.65
2023-04-05T08:26:48.866Z,3.80
2023-04-05T08:29:19.688Z,4.15
2023-04-05T08:31:48.305Z,4.43
2023-04-05T08:34:17.312Z,4.15
2023-04-05T08:36:48.884Z,4.05
2023-04-05T08:39:19.218Z,4.00
2023-04-05T08:41:56.991Z,4.05
2023-04-05T08:44:27.548Z,4.55
2023-04-05T08:46:57.193Z,3.70
2023-04-05T08:49:25.965Z,4.45
2023-04-05T08:51:57.731Z,4.07
2023-04-05T08:54:29.368Z,4.00
2023-04-05T08:56:59.677Z,4.15
2023-04-05T08:59:35.296Z,4.50
2023-04-05T09:02:09.681Z,4.35
2023-04-05T09:04:44.821Z,4.85
2023-04-05T09:07:15.143Z,4.53
2023-04-05T09:09:45.592Z,4.78
2023-04-05T09:12:14.999Z,4.07
2023-04-05T09:14:44.399Z,4.10
2023-04-05T09:17:13.439Z,5.05
2023-04-05T09:19:41.868Z,4.43
2023-04-05T09:22:11.719Z,3.83
2023-04-05T09:24:44.519Z,4.15
2023-04-05T09:27:15.885Z,4.03
2023-04-05T09:29:47.300Z,4.30
2023-04-05T09:32:20.068Z,4.10
2023-04-05T09:34:50.710Z,4.18
2023-04-05T09:37:25.706Z,4.30
2023-04-05T09:40:03.760Z,4.43
2023-04-05T09:42:46.328Z,5.15
2023-04-05T09:45:15.919Z,4.47
2023-04-05T09:47:55.417Z,4.07
2023-04-05T09:50:24.167Z,4.38
2023-04-05T09:53:07.003Z,4.85
2023-04-05T09:55:37.984Z,4.55
2023-04-05T09:58:09.149Z,4.15
2023-04-05T10:00:38.427Z,4.47
2023-04-05T10:05:56.163Z,4.40
2023-04-05T10:08:25.814Z,4.10
2023-04-05T10:10:56.412Z,4.43
2023-04-05T10:13:27.781Z,4.75
2023-04-05T10:15:57.706Z,4.43
2023-04-05T10:18:32.473Z,4.82
2023-04-05T10:21:06.687Z,4.30
2023-04-05T10:26:09.601Z,4.38
2023-04-05T10:28:43.745Z,4.43
2023-04-05T10:31:36.918Z,4.60
2023-04-05T10:34:13.703Z,3.97
2023-04-05T10:36:52.041Z,4.30
2023-04-05T10:39:30.004Z,4.35
2023-04-05T10:42:02.275Z,4.60
2023-04-05T10:44:34.003Z,4.57
2023-04-05T10:47:03.582Z,4.40
2023-04-05T10:49:44.164Z,4.70
2023-04-05T10:52:12.979Z,3.78
2023-04-05T10:54:41.807Z,3.88
2023-04-05T10:57:13.545Z,4.55
2023-04-05T10:59:47.700Z,4.95
2023-04-05T11:02:17.586Z,4.18
2023-04-05T11:04:58.299Z,4.38
2023-04-05T11:07:26.970Z,4.55
2023-04-05T11:10:14.902Z,4.15
2023-04-05T11:12:49.235Z,4.18
2023-04-05T11:15:27.670Z,4.45
2023-04-05T11:18:05.461Z,4.72
2023-04-05T11:20:43.547Z,3.95
2023-04-05T11:23:12.796Z,4.80
2023-04-05T11:25:41.579Z,3.88
2023-04-05T11:28:23.347Z,4.55
2023-04-05T11:30:53.071Z,4.45
2023-04-05T11:33:37.662Z,4.40
2023-04-05T11:36:06.495Z,4.18
2023-04-05T11:38:34.933Z,4.82
2023-04-05T11:41:21.468Z,4.82
2023-04-05T11:43:52.889Z,4.25
2023-04-05T11:46:32.693Z,4.40
2023-04-05T11:49:04.050Z,4.97
2023-04-05T11:51:34.277Z,4.75
2023-04-05T11:54:02.916Z,4.15
2023-04-05T11:56:33.210Z,4.90
2023-04-05T11:59:02.002Z,4.93
2023-04-05T12:01:31.967Z,4.68
2023-04-05T12:04:00.863Z,4.63
2023-04-05T12:06:30.411Z,4.97
2023-04-05T12:08:58.822Z,5.05
2023-04-05T12:11:28.395Z,5.60
2023-04-05T12:14:00.627Z,4.80
2023-04-05T12:16:30.792Z,4.88
2023-04-05T12:19:02.103Z,4.65
2023-04-05T12:21:33.145Z,4.18
2023-04-05T12:24:06.888Z,5.22
2023-04-05T12:26:38.675Z,4.88
2023-04-05T12:29:07.736Z,4.50
2023-04-05T12:31:40.080Z,5.07
2023-04-05T12:34:09.633Z,5.63
2023-04-05T12:36:44.581Z,5.85
2023-04-05T12:39:12.827Z,5.65
2023-04-05T12:41:42.627Z,5.45
2023-04-05T12:44:18.065Z,5.00
2023-04-05T12:46:49.563Z,5.72
2023-04-05T12:49:19.083Z,5.18
2023-04-05T12:51:48.090Z,5.68
2023-04-05T12:54:21.552Z,5.35
2023-04-05T12:56:54.623Z,5.55
2023-04-05T12:59:24.932Z,5.78
2023-04-05T13:01:54.980Z,5.85
2023-04-05T13:04:24.263Z,5.40
2023-04-05T13:06:52.647Z,5.53
2023-04-05T13:09:24.150Z,6.40
2023-04-05T13:11:57.509Z,4.95
2023-04-05T13:14:27.272Z,4.97
2023-04-05T13:16:56.123Z,5.35
2023-04-05T13:19:25.510Z,5.32
2023-04-05T13:21:55.910Z,5.28
2023-04-05T13:24:24.328Z,4.90
2023-04-05T13:26:53.150Z,5.25
2023-04-05T13:29:22.289Z,4.93
2023-04-05T13:31:53.876Z,6.07
2023-04-05T13:34:22.529Z,5.68
2023-04-05T13:36:51.211Z,5.18
2023-04-05T13:39:20.382Z,5.75
2023-04-05T13:41:50.640Z,5.50
2023-04-05T13:44:25.813Z,4.50
2023-04-05T13:46:54.651Z,5.30
2023-04-05T13:49:24.182Z,5.70
2023-04-05T13:51:52.837Z,5.30
2023-04-05T13:54:21.467Z,6.20
2023-04-05T13:56:50.326Z,5.05
2023-04-05T13:59:19.525Z,5.15
2023-04-05T14:01:49.082Z,5.85
2023-04-05T14:04:18.688Z,5.32
2023-04-05T14:06:47.583Z,6.45
2023-04-05T14:09:16.321Z,5.53
2023-04-05T14:11:47.282Z,5.30
2023-04-05T14:14:15.972Z,5.57
2023-04-05T14:16:46.951Z,5.78
2023-04-05T14:19:18.482Z,5.68
2023-04-05T14:21:48.530Z,5.97
2023-04-05T14:26:50.875Z,5.55
2023-04-05T14:29:20.626Z,5.30
2023-04-05T14:31:49.293Z,5.38
2023-04-05T14:34:20.818Z,5.22
2023-04-05T14:36:49.654Z,5.25
2023-04-05T14:39:18.074Z,5.32
2023-04-05T14:41:52.533Z,5.70
2023-04-05T14:44:24.455Z,5.25
2023-04-05T14:46:53.454Z,5.10
2023-04-05T14:49:21.879Z,5.20
2023-04-05T14:51:50.425Z,5.53
2023-04-05T14:54:21.379Z,5.85
2023-04-05T14:56:52.386Z,6.38
2023-04-05T14:59:21.115Z,5.50
2023-04-05T15:01:50.215Z,5.40
2023-04-05T15:04:21.355Z,6.03
2023-04-05T15:06:50.737Z,5.95
2023-04-05T15:09:19.840Z,5.90
2023-04-05T15:11:48.409Z,5.63
2023-04-05T15:14:24.851Z,5.75
2023-04-05T15:17:03.375Z,5.72
2023-04-05T15:19:32.901Z,5.63
2023-04-05T15:22:01.700Z,6.00
2023-04-05T15:24:33.743Z,5.65
2023-04-05T15:27:05.158Z,5.85
2023-04-05T15:29:34.763Z,6.65
2023-04-05T15:32:03.993Z,6.07
2023-04-05T15:34:33.870Z,5.28
2023-04-05T15:37:08.606Z,5.10
2023-04-05T15:39:37.778Z,6.10
2023-04-05T15:42:06.680Z,4.75
2023-04-05T15:44:36.536Z,5.07
2023-04-05T15:47:06.245Z,5.32
2023-04-05T15:49:35.637Z,4.72
2023-04-05T15:52:04.516Z,6.03
2023-04-05T15:54:33.333Z,5.45
2023-04-05T15:57:02.152Z,6.07
2023-04-05T15:59:33.109Z,6.03
2023-04-05T16:02:01.948Z,5.40
2023-04-05T16:04:32.370Z,5.30
2023-04-05T16:07:01.707Z,5.18
2023-04-05T16:09:31.814Z,4.95
2023-04-05T16:12:00.574Z,5.60
2023-04-05T16:14:30.648Z,5.60
2023-04-05T16:17:02.758Z,5.68
2023-04-05T16:19:34.684Z,5.43
2023-04-05T16:22:03.663Z,5.03
2023-04-05T16:24:36.846Z,5.07
2023-04-05T16:27:05.395Z,5.97
2023-04-05T16:29:34.447Z,5.97
2023-04-05T16:32:03.886Z,5.07
2023-04-05T16:34:33.160Z,5.32
2023-04-05T16:37:01.964Z,5.10
2023-04-05T16:39:31.058Z,5.13
2023-04-05T16:42:00.456Z,4.60
2023-04-05T16:44:32.432Z,5.68
2023-04-05T16:47:03.623Z,5.38
2023-04-05T16:49:33.362Z,4.90
2023-04-05T16:52:02.494Z,4.72
2023-04-05T16:54:32.617Z,4.80
2023-04-05T16:57:02.197Z,4.82
2023-04-05T16:59:30.973Z,4.78
2023-04-05T17:02:05.607Z,4.70
2023-04-05T17:04:37.194Z,5.15
2023-04-05T17:07:09.114Z,4.70
2023-04-05T17:09:37.505Z,4.68
2023-04-05T17:12:07.057Z,4.20
2023-04-05T17:14:35.770Z,5.13
2023-04-05T17:17:05.429Z,5.05
2023-04-05T17:19:34.001Z,4.72
2023-04-05T17:22:05.365Z,4.72
2023-04-05T17:24:36.016Z,4.28
2023-04-05T17:27:05.763Z,4.40
2023-04-05T17:29:35.966Z,5.18
2023-04-05T17:32:04.626Z,6.80
2023-04-05T17:34:34.452Z,5.05
2023-04-05T17:37:06.364Z,5.55
2023-04-05T17:39:35.749Z,4.32
2023-04-05T17:42:04.649Z,4.57
2023-04-05T17:44:37.179Z,5.30
2023-04-05T17:47:09.621Z,5.00
2023-04-05T17:49:41.466Z,4.43
2023-04-05T17:52:12.594Z,4.60
2023-04-05T17:54:43.991Z,4.88
2023-04-05T17:57:17.425Z,4.90
2023-04-05T17:59:46.635Z,4.95
2023-04-05T18:02:15.723Z,4.57
2023-04-05T18:04:46.691Z,4.55
2023-04-05T18:07:15.677Z,4.97
2023-04-05T18:09:44.230Z,5.07
2023-04-05T18:12:16.076Z,5.05
2023-04-05T18:14:48.445Z,4.82
2023-04-05T18:17:17.873Z,4.10
2023-04-05T18:19:49.347Z,5.10
2023-04-05T18:22:17.988Z,4.30
2023-04-05T18:24:48.958Z,4.47
2023-04-05T18:27:17.977Z,5.13
2023-04-05T18:29:46.937Z,6.70
2023-04-05T18:32:18.453Z,6.25
2023-04-05T18:34:47.245Z,6.68
2023-04-05T18:37:16.040Z,4.85
2023-04-05T18:39:45.041Z,4.43
2023-04-05T18:42:16.181Z,4.60
2023-04-05T18:44:45.571Z,4.95
2023-04-05T18:47:14.810Z,6.10
2023-04-05T18:49:44.060Z,4.57
2023-04-05T18:52:17.252Z,4.57
2023-04-05T18:54:46.067Z,4.57
2023-04-05T18:57:17.639Z,4.35
2023-04-05T19:00:04.751Z,4.78
2023-04-05T19:02:55.243Z,4.85
2023-04-05T19:05:24.839Z,4.20
2023-04-05T19:07:56.396Z,4.53
2023-04-05T19:10:26.427Z,5.03
2023-04-05T19:12:54.889Z,4.03
2023-04-05T19:15:24.462Z,5.07
2023-04-05T19:17:55.144Z,5.03
2023-04-05T19:20:24.079Z,5.00
2023-04-05T19:22:52.847Z,4.63
2023-04-05T19:25:21.966Z,4.88
2023-04-05T19:27:50.786Z,4.30
2023-04-05T19:30:21.981Z,4.78
2023-04-05T19:33:06.805Z,4.45
2023-04-05T19:35:36.497Z,5.18
2023-04-05T19:38:06.216Z,4.35
2023-04-05T19:40:39.814Z,4.18
2023-04-05T19:43:09.396Z,4.82
2023-04-05T19:45:38.224Z,4.80
2023-04-05T19:48:27.157Z,5.22
2023-04-05T19:51:00.962Z,4.80
2023-04-05T19:53:43.342Z,5.18
2023-04-05T19:56:22.896Z,4.95
2023-04-05T19:58:55.307Z,5.05
2023-04-05T20:01:29.692Z,5.15
2023-04-05T20:03:58.744Z,4.65
2023-04-05T20:06:28.503Z,5.63
2023-04-05T20:09:01.062Z,5.00
2023-04-05T20:11:31.809Z,4.78
2023-04-05T20:14:04.019Z,4.97
2023-04-05T20:16:35.586Z,5.70
2023-04-05T20:19:07.386Z,6.32
2023-04-05T20:21:37.657Z,4.85
2023-04-05T20:24:10.315Z,4.95
2023-04-05T20:26:39.475Z,5.70
2023-04-05T20:29:09.370Z,5.40
2023-04-05T20:31:39.981Z,5.07
2023-04-05T20:34:09.460Z,5.07
2023-04-05T20:36:50.381Z,4.85
2023-04-05T20:39:19.153Z,4.38
2023-04-05T20:41:51.264Z,5.03
2023-04-05T20:44:20.403Z,5.28
2023-04-05T20:46:53.251Z,5.43
2023-04-05T20:49:22.254Z,4.40
2023-04-05T20:51:51.575Z,4.75
2023-04-05T20:54:21.852Z,4.88
2023-04-05T20:56:54.709Z,4.90
2023-04-05T20:59:23.325Z,5.28
2023-04-05T21:01:52.626Z,4.63
2023-04-05T21:04:21.358Z,4.93
2023-04-05T21:06:50.413Z,5.07
2023-04-05T21:09:21.198Z,5.00
2023-04-05T21:12:09.311Z,4.88
2023-04-05T21:14:57.020Z,4.60
2023-04-05T21:17:44.937Z,4.00
2023-04-05T21:20:32.795Z,4.95
2023-04-05T21:23:21.474Z,5.60
2023-04-05T21:26:11.613Z,4.78
2023-04-05T21:28:57.347Z,5.18
2023-04-05T21:31:27.142Z,5.75
2023-04-05T21:34:06.888Z,5.32
2023-04-05T21:36:38.225Z,5.45
2023-04-05T21:39:09.829Z,5.28
2023-04-05T21:41:38.587Z,5.28
2023-04-05T21:44:07.152Z,4.75
2023-04-05T21:46:39.275Z,5.55
2023-04-05T21:49:07.986Z,5.53
2023-04-05T21:51:40.941Z,4.95
2023-04-05T21:54:12.518Z,4.85
2023-04-05T21:56:41.741Z,4.80
2023-04-05T21:59:10.406Z,5.25
2023-04-05T22:01:40.536Z,4.72
2023-04-05T22:04:09.469Z,5.10
2023-04-05T22:06:42.479Z,4.53
2023-04-05T22:09:20.378Z,4.55
2023-04-05T22:11:51.557Z,4.35
2023-04-05T22:14:26.459Z,4.75
2023-04-05T22:19:34.644Z,4.40
2023-04-05T22:22:05.986Z,3.75
2023-04-05T22:24:38.821Z,4.95
2023-04-05T22:27:07.530Z,4.40
2023-04-05T22:29:38.593Z,4.78
2023-04-05T22:32:07.707Z,5.65
2023-04-05T22:34:36.907Z,4.28
2023-04-05T22:37:05.575Z,4.95
2023-04-05T22:39:38.197Z,5.33
2023-04-05T22:42:07.143Z,5.05
2023-04-05T22:44:44.507Z,5.43
2023-04-05T22:47:13.479Z,5.18
2023-04-05T22:49:43.067Z,5.40
2023-04-05T22:52:17.909Z,4.63
2023-04-05T22:57:17.913Z,4.65
2023-04-05T22:59:49.564Z,5.07
2023-04-05T23:02:18.295Z,4.75
2023-04-05T23:04:47.269Z,4.75
2023-04-05T23:07:16.370Z,4.88
2023-04-05T23:09:45.948Z,4.63
2023-04-05T23:12:18.046Z,4.88
2023-04-05T23:14:51.912Z,4.80
2023-04-05T23:17:26.191Z,5.55
2023-04-05T23:19:55.429Z,4.75
2023-04-05T23:22:24.854Z,4.97
2023-04-05T23:24:54.032Z,5.03
2023-04-05T23:27:22.894Z,6.10
2023-04-05T23:29:51.631Z,4.38
2023-04-05T23:32:21.561Z,4.97
2023-04-05T23:34:55.505Z,5.13
2023-04-05T23:37:25.249Z,5.47
2023-04-05T23:39:56.109Z,5.43
2023-04-05T23:42:25.493Z,5.00
2023-04-05T23:44:54.131Z,5.28
2023-04-05T23:47:23.707Z,5.57
2023-04-05T23:49:52.448Z,5.63
2023-04-05T23:52:21.355Z,5.90
2023-04-05T23:54:53.342Z,5.78
2023-04-05T23:57:22.434Z,5.65
2023-04-05T23:59:51.708Z,5.80
